Time;durP1;ratioP1;P1;durP2;ratioP2;P2;SDS_P1;SDS_P2;PMS_P1;PMS_P2;Temp;Humidity;BMP_temperature;BMP_pressure;BME280_temperature;BME280_humidity;BME280_pressure;Samples;Min_cycle;Max_cycle;Signal;HPM_P1;HPM_P2
2021/05/18 00:00:42;;;;;;;3.45;0.80;;;;;;;12.03;74.42;98677.09;4183374;34;34110;-89
2021/05/18 00:03:20;;;;;;;3.45;0.90;;;;;;;11.95;73.15;98675.50;4170662;34;34528;-90
2021/05/18 00:05:59;;;;;;;2.42;0.60;;;;;;;12.19;72.51;98673.81;4190745;34;33713;-90
2021/05/18 00:08:34;;;;;;;1.15;0.43;;;;;;;12.16;72.45;98681.56;4180831;34;34446;-89
2021/05/18 00:14:00;;;;;;;3.65;0.70;;;;;;;12.07;72.42;98680.22;4182363;34;34111;-93
2021/05/18 00:16:33;;;;;;;3.25;0.50;;;;;;;11.71;73.02;98679.84;4181988;34;33615;-92
2021/05/18 00:19:09;;;;;;;1.65;0.60;;;;;;;12.15;72.29;98679.91;4182591;34;34254;-91
2021/05/18 00:21:43;;;;;;;1.08;0.57;;;;;;;12.15;71.15;98669.06;4181944;34;33883;-91
2021/05/18 00:24:20;;;;;;;2.35;0.40;;;;;;;12.28;71.41;98677.06;4180921;34;34866;-91
2021/05/18 00:26:54;;;;;;;0.60;0.40;;;;;;;12.07;72.25;98678.31;4182085;34;33982;-92
2021/05/18 00:29:32;;;;;;;4.25;0.47;;;;;;;12.12;71.09;98681.19;4172546;34;32754;-91
2021/05/18 00:32:04;;;;;;;0.65;0.37;;;;;;;12.12;70.79;98686.59;4177191;34;35382;-91
2021/05/18 00:34:38;;;;;;;1.73;0.40;;;;;;;12.13;70.22;98682.84;4170473;34;34432;-91
2021/05/18 00:37:11;;;;;;;0.50;0.20;;;;;;;12.27;70.28;98688.13;4190688;34;33967;-90
2021/05/18 00:39:49;;;;;;;1.02;0.20;;;;;;;12.19;69.32;98697.37;4182816;34;33662;-96
2021/05/18 00:42:27;;;;;;;1.70;0.43;;;;;;;12.03;69.42;98687.12;4173295;34;34970;-95
2021/05/18 00:45:00;;;;;;;0.65;0.32;;;;;;;12.03;69.83;98698.78;4175764;34;34066;-90
2021/05/18 00:47:35;;;;;;;0.17;0.17;;;;;;;12.40;68.48;98696.13;4179136;34;32844;-90
2021/05/18 00:50:10;;;;;;;3.87;0.50;;;;;;;12.22;69.26;98702.34;4183587;34;34411;-91
2021/05/18 00:52:44;;;;;;;2.15;0.40;;;;;;;12.31;68.97;98711.84;4185433;34;33241;-90
2021/05/18 00:55:37;;;;;;;1.50;0.43;;;;;;;12.41;67.56;98718.63;4177397;34;33368;-91
2021/05/18 00:58:27;;;;;;;1.62;0.88;;;;;;;12.18;68.13;98720.09;4183132;34;35727;-91
2021/05/18 01:01:10;;;;;;;2.53;0.20;;;;;;;12.44;67.75;98724.44;4175510;34;33889;-90
2021/05/18 01:03:44;;;;;;;3.30;0.57;;;;;;;12.35;68.46;98723.91;4185743;34;33421;-95
2021/05/18 01:09:10;;;;;;;3.37;0.30;;;;;;;12.32;67.38;98718.06;4183864;34;33662;-89
2021/05/18 01:11:48;;;;;;;0.82;0.20;;;;;;;12.16;68.20;98731.16;4177967;34;34777;-91
2021/05/18 01:14:25;;;;;;;1.77;0.30;;;;;;;12.29;67.55;98729.34;4172407;34;34812;-90
2021/05/18 01:17:00;;;;;;;0.17;0.17;;;;;;;12.28;67.28;98739.38;4184682;34;35475;-90
2021/05/18 01:19:34;;;;;;;0.95;0.20;;;;;;;12.26;67.73;98738.78;4184369;34;34445;-90
2021/05/18 01:22:07;;;;;;;1.95;0.35;;;;;;;12.32;67.71;98751.44;4177254;34;34128;-92
2021/05/18 01:24:44;;;;;;;0.50;0.25;;;;;;;12.29;67.79;98746.47;4191033;34;33225;-96
2021/05/18 01:27:41;;;;;;;0.90;0.50;;;;;;;11.97;68.33;98737.56;4160016;34;33587;-91
2021/05/18 01:30:15;;;;;;;0.28;0.13;;;;;;;11.87;68.71;98746.16;4164977;34;33607;-89
2021/05/18 01:32:49;;;;;;;2.58;0.40;;;;;;;11.99;68.62;98757.13;4167350;34;34112;-89
2021/05/18 01:35:23;;;;;;;0.57;0.20;;;;;;;11.83;69.14;98745.75;4164646;34;35178;-93
2021/05/18 01:38:12;;;;;;;1.60;0.30;;;;;;;12.02;68.19;98748.59;4155011;34;34375;-95
2021/05/18 01:44:01;;;;;;;0.85;0.28;;;;;;;12.16;68.53;98760.13;4174793;34;34366;-89
2021/05/18 01:46:42;;;;;;;1.95;0.40;;;;;;;12.12;68.25;98748.88;4172991;34;34209;-96
2021/05/18 01:49:42;;;;;;;2.37;0.50;;;;;;;12.19;67.88;98744.25;4097192;34;34001;-89
2021/05/18 01:52:19;;;;;;;1.08;0.60;;;;;;;12.32;67.93;98758.72;4113959;34;33725;-89
2021/05/18 01:54:55;;;;;;;2.12;0.30;;;;;;;12.32;67.40;98761.41;4098324;35;34397;-90
2021/05/18 01:57:32;;;;;;;0.73;0.40;;;;;;;12.09;68.96;98762.88;4097414;34;32469;-95
2021/05/18 02:00:24;;;;;;;0.85;0.47;;;;;;;12.13;68.37;98764.09;4116457;34;32234;-94
2021/05/18 02:03:16;;;;;;;2.00;0.57;;;;;;;12.14;68.76;98767.63;4136719;34;35921;-93
2021/05/18 02:05:57;;;;;;;1.30;0.60;;;;;;;12.18;68.49;98767.00;4120927;34;33740;-96
2021/05/18 02:08:32;;;;;;;1.15;0.32;;;;;;;12.22;68.62;98771.97;4108756;34;33004;-94
2021/05/18 02:15:04;;;;;;;1.00;0.30;;;;;;;12.16;68.70;98779.91;4129193;34;38243;-89
2021/05/18 02:17:43;;;;;;;0.98;0.50;;;;;;;12.17;68.36;98786.16;4147473;34;33641;-92
2021/05/18 02:20:37;;;;;;;6.62;0.52;;;;;;;12.17;69.20;98786.16;4138286;34;33965;-96
2021/05/18 02:26:22;;;;;;;0.30;0.30;;;;;;;12.02;69.04;98786.50;4161972;34;34524;-95
2021/05/18 02:29:14;;;;;;;1.02;0.35;;;;;;;11.87;69.96;98786.78;4183834;34;35715;-88
2021/05/18 02:31:49;;;;;;;1.77;0.60;;;;;;;12.08;68.81;98780.19;4175303;34;34774;-95
2021/05/18 02:34:56;;;;;;;2.83;0.32;;;;;;;11.88;69.68;98783.00;4070354;34;35451;-92
2021/05/18 02:37:30;;;;;;;0.30;0.30;;;;;;;11.63;70.64;98788.38;4177236;34;33735;-88
2021/05/18 02:40:06;;;;;;;3.70;0.85;;;;;;;11.88;70.24;98795.72;4165793;34;35076;-93
2021/05/18 02:42:53;;;;;;;2.58;0.30;;;;;;;11.77;70.65;98795.38;4188558;34;33366;-90
2021/05/18 02:45:51;;;;;;;1.65;0.37;;;;;;;11.89;69.96;98794.69;4176610;34;34598;-92
2021/05/18 02:51:41;;;;;;;1.05;0.40;;;;;;;11.89;69.74;98805.50;4153552;34;34851;-96
2021/05/18 02:55:01;;;;;;;2.17;0.50;;;;;;;11.84;70.15;98806.13;3853765;34;34222;-88
2021/05/18 02:57:39;;;;;;;1.02;0.50;;;;;;;11.69;70.63;98806.47;4162936;34;34688;-93
2021/05/18 03:00:18;;;;;;;1.25;0.40;;;;;;;11.66;70.82;98817.72;4169956;34;34666;-94
2021/05/18 03:02:55;;;;;;;0.47;0.35;;;;;;;11.68;70.92;98810.22;4160245;34;34409;-95
2021/05/18 03:05:28;;;;;;;3.72;0.80;;;;;;;11.73;70.55;98818.50;4164619;34;33863;-88
2021/05/18 03:08:04;;;;;;;1.17;0.60;;;;;;;11.71;70.38;98815.19;4160245;34;33813;-96
2021/05/18 03:11:10;;;;;;;0.50;0.45;;;;;;;11.68;70.33;98821.03;4192540;34;32645;-88
2021/05/18 03:13:43;;;;;;;1.00;0.50;;;;;;;11.54;70.99;98824.84;4203838;34;33637;-93
2021/05/18 03:16:16;;;;;;;2.67;0.50;;;;;;;11.55;71.18;98824.66;4188139;34;34634;-90
2021/05/18 03:18:55;;;;;;;1.30;0.50;;;;;;;11.76;70.06;98828.91;4199054;34;33547;-91
2021/05/18 03:21:30;;;;;;;1.05;0.40;;;;;;;11.45;71.32;98835.94;4189147;34;33671;-92
2021/05/18 03:24:05;;;;;;;2.20;0.60;;;;;;;11.42;71.43;98840.94;4190556;34;33293;-96
2021/05/18 03:26:45;;;;;;;2.42;0.60;;;;;;;11.54;71.30;98838.38;4177976;34;32337;-88
2021/05/18 03:29:25;;;;;;;1.45;0.50;;;;;;;11.90;70.39;98843.19;4192893;34;35097;-89
2021/05/18 03:35:31;;;;;;;0.62;0.40;;;;;;;11.58;70.49;98853.97;4048442;34;35096;-89
2021/05/18 03:38:24;;;;;;;2.85;0.52;;;;;;;11.53;71.32;98863.81;4186351;34;33268;-95
2021/05/18 03:41:28;;;;;;;0.55;0.30;;;;;;;11.64;71.17;98863.13;4169922;34;33770;-96
2021/05/18 03:44:19;;;;;;;0.50;0.40;;;;;;;11.84;69.74;98863.84;4170717;34;35898;-95
2021/05/18 04:04:27;;;;;;;0.70;0.50;;;;;;;11.86;68.88;98868.22;4174006;34;32762;-89
2021/05/18 04:12:45;;;;;;;6.15;0.43;;;;;;;12.13;68.36;98883.28;4184478;34;33794;-90
2021/05/18 04:18:18;;;;;;;1.00;0.50;;;;;;;12.28;66.75;98888.37;4156600;34;34340;-95
2021/05/18 05:00:45;;;;;;;0.75;0.40;;;;;;;12.96;65.94;98913.88;4140649;34;33342;-96
2021/05/18 05:03:49;;;;;;;2.10;0.68;;;;;;;12.78;66.56;98920.09;4138138;34;34211;-91
2021/05/18 05:06:36;;;;;;;1.65;0.43;;;;;;;12.98;64.73;98916.38;4144789;34;34103;-89
2021/05/18 05:09:31;;;;;;;2.65;0.30;;;;;;;12.89;64.82;98919.37;4153691;34;33987;-91
2021/05/18 05:14:54;;;;;;;;;;;;;;;13.03;66.10;98922.78;4168698;34;34391;-93
2021/05/18 05:17:28;;;;;;;1.37;0.30;;;;;;;13.49;64.24;98928.84;4171500;34;32726;-91
2021/05/18 05:20:05;;;;;;;1.65;0.40;;;;;;;13.73;64.01;98912.69;4173989;34;34687;-92
2021/05/18 05:22:45;;;;;;;1.73;0.40;;;;;;;13.74;63.04;98922.47;4165868;34;31778;-96
2021/05/18 05:25:34;;;;;;;2.28;0.50;;;;;;;13.60;63.73;98925.34;4164972;34;32534;-96
2021/05/18 05:28:12;;;;;;;2.50;0.30;;;;;;;13.64;62.92;98914.88;4177237;34;34089;-92
2021/05/18 05:30:47;;;;;;;2.25;0.30;;;;;;;13.65;62.63;98921.13;4177640;34;34240;-95
2021/05/18 05:33:20;;;;;;;0.65;0.32;;;;;;;13.32;64.21;98917.69;4188020;34;32250;-92
2021/05/18 05:35:53;;;;;;;0.80;0.50;;;;;;;13.57;63.06;98924.97;4188029;34;34250;-92
2021/05/18 05:38:29;;;;;;;5.97;0.57;;;;;;;13.55;64.36;98921.69;4176753;34;34152;-90
2021/05/18 05:41:03;;;;;;;0.40;0.30;;;;;;;13.66;63.34;98922.78;4189216;34;33811;-90
2021/05/18 05:43:44;;;;;;;0.37;0.20;;;;;;;14.00;62.63;98923.22;4179719;34;33013;-92
2021/05/18 05:46:22;;;;;;;0.22;0.20;;;;;;;14.05;63.41;98920.63;4191004;34;33693;-93
2021/05/18 05:48:55;;;;;;;1.60;0.35;;;;;;;14.14;63.94;98921.94;4188949;34;33161;-91
2021/05/18 05:51:29;;;;;;;3.87;0.50;;;;;;;14.21;62.93;98914.53;4189602;34;34639;-95
2021/05/18 05:54:03;;;;;;;2.25;0.30;;;;;;;14.14;61.65;98924.66;4189384;34;34256;-92
2021/05/18 05:56:37;;;;;;;0.82;0.30;;;;;;;14.08;62.08;98922.88;4179911;34;33719;-93
2021/05/18 05:59:18;;;;;;;0.30;0.25;;;;;;;14.21;63.10;98933.56;4167481;34;33899;-94
2021/05/18 06:01:52;;;;;;;5.50;0.43;;;;;;;14.40;61.88;98923.47;4191577;34;33782;-95
2021/05/18 06:04:38;;;;;;;0.52;0.40;;;;;;;14.47;60.60;98917.91;4160616;34;32985;-96
2021/05/18 06:07:17;;;;;;;0.55;0.40;;;;;;;14.46;61.50;98927.13;4158297;34;34642;-96
2021/05/18 06:10:31;;;;;;;2.72;0.55;;;;;;;14.56;60.08;98938.25;4141794;34;36007;-93
2021/05/18 06:14:03;;;;;;;3.97;0.50;;;;;;;14.49;61.28;98932.13;4157639;34;34324;-90
2021/05/18 06:41:33;;;;;;;;;;;;;;;;;;;;;
2021/05/18 06:47:31;;;;;;;0.35;0.20;;;;;;;15.39;60.92;98995.53;4156814;34;34454;-91
2021/05/18 06:53:01;;;;;;;2.03;0.50;;;;;;;14.97;59.40;98996.44;4170779;34;33996;-92
2021/05/18 06:55:36;;;;;;;1.60;0.40;;;;;;;15.73;58.16;99011.25;4168669;34;33144;-90
2021/05/18 06:58:13;;;;;;;2.53;0.43;;;;;;;15.67;57.51;99011.16;4158023;34;34565;-89
2021/05/18 07:00:49;;;;;;;2.17;0.62;;;;;;;15.76;56.27;99006.12;4168267;34;34298;-91
2021/05/18 07:03:33;;;;;;;3.47;0.55;;;;;;;15.85;56.39;98998.47;4165454;34;33690;-91
2021/05/18 07:06:23;;;;;;;1.58;0.35;;;;;;;16.25;56.32;99019.44;4157460;34;37455;-90
2021/05/18 07:08:58;;;;;;;1.70;0.20;;;;;;;16.44;58.67;99021.97;4170745;34;34688;-91
2021/05/18 07:11:33;;;;;;;3.10;0.50;;;;;;;15.91;56.81;99019.28;4158526;34;34589;-94
2021/05/18 07:14:23;;;;;;;3.00;0.20;;;;;;;15.89;57.48;99022.25;4172381;34;31819;-96
2021/05/18 07:17:00;;;;;;;2.35;0.30;;;;;;;16.13;57.14;99029.56;4167411;34;34465;-96
2021/05/18 07:19:53;;;;;;;3.35;0.70;;;;;;;16.31;56.75;99039.47;4164950;34;35398;-96
2021/05/18 07:22:34;;;;;;;1.45;0.45;;;;;;;16.24;58.08;99028.69;4171380;34;33570;-96
2021/05/18 07:25:55;;;;;;;2.15;0.32;;;;;;;16.02;56.24;99036.72;4140947;34;35418;-90
2021/05/18 07:28:36;;;;;;;0.88;0.35;;;;;;;16.49;54.48;99033.81;4177630;34;34700;-96
2021/05/18 07:31:41;;;;;;;0.98;0.50;;;;;;;16.31;54.48;99029.38;4182591;34;33677;-96
2021/05/18 07:34:18;;;;;;;2.08;0.30;;;;;;;16.24;55.24;99035.00;4183619;34;35249;-90
2021/05/18 07:36:56;;;;;;;1.12;0.50;;;;;;;16.77;54.09;99032.97;4177378;34;33213;-96
2021/05/18 07:40:16;;;;;;;1.20;0.60;;;;;;;17.39;54.46;99025.84;4167716;34;34681;-89
2021/05/18 07:42:53;;;;;;;6.87;0.40;;;;;;;17.44;53.06;99023.19;4172343;34;33745;-90
2021/05/18 07:45:27;;;;;;;0.60;0.32;;;;;;;17.10;53.72;99034.13;4162362;34;33642;-90
2021/05/18 07:51:12;;;;;;;0.70;0.37;;;;;;;17.47;55.20;99039.09;4164635;34;34435;-96
2021/05/18 08:05:17;;;;;;;6.03;0.40;;;;;;;18.04;53.61;99059.06;4180756;34;33665;-90
2021/05/18 08:07:52;;;;;;;1.58;0.45;;;;;;;17.27;52.69;99041.50;4181630;34;34318;-88
2021/05/18 08:11:14;;;;;;;4.75;0.20;;;;;;;17.59;51.92;99049.06;4232252;28;33184;-89
2021/05/18 08:13:54;;;;;;;3.37;0.60;;;;;;;17.75;50.63;99047.41;4187006;34;33645;-94
2021/05/18 09:50:48;;;;;;;0.95;0.57;;;;;;;18.35;54.59;99123.19;4167745;34;32963;-95
2021/05/18 10:16:55;;;;;;;5.80;0.70;;;;;;;19.36;48.26;99104.59;4190604;34;34099;-95
2021/05/18 10:35:57;;;;;;;0.50;0.40;;;;;;;19.49;47.38;99097.84;4161711;34;34556;-96
2021/05/18 10:38:47;;;;;;;1.75;0.50;;;;;;;20.42;44.39;99098.44;4173245;34;34661;-96
2021/05/18 10:45:58;;;;;;;2.87;0.50;;;;;;;20.66;43.14;99108.97;3397712;29;20485;-95
2021/05/18 10:48:40;;;;;;;1.55;0.55;;;;;;;19.78;43.45;99107.69;4186186;34;33850;-93
2021/05/18 10:51:47;;;;;;;0.75;0.52;;;;;;;19.48;44.97;99120.84;4174471;34;34588;-96
2021/05/18 10:55:30;;;;;;;;;;;;;;;;;;;;;
2021/05/18 10:58:42;;;;;;;0.80;0.57;;;;;;;18.58;45.15;99120.44;4210122;28;20139;-95
2021/05/18 11:01:40;;;;;;;1.23;0.73;;;;;;;18.17;51.51;99140.72;4128163;34;35309;-94
2021/05/18 11:04:53;;;;;;;5.87;1.17;;;;;;;18.01;54.22;99155.25;4176482;34;32802;-91
2021/05/18 11:07:43;;;;;;;2.87;1.35;;;;;;;17.55;57.01;99173.62;4138620;34;33813;-92
2021/05/18 11:10:27;;;;;;;4.28;0.90;;;;;;;17.52;58.20;99165.91;4138149;34;32857;-96
2021/05/18 11:13:18;;;;;;;3.70;0.90;;;;;;;17.39;58.87;99154.22;4196528;34;34873;-96
2021/05/18 11:16:02;;;;;;;4.30;1.20;;;;;;;17.16;56.93;99152.44;4187418;34;33718;-96
2021/05/18 11:19:16;;;;;;;1.48;0.50;;;;;;;17.55;54.79;99157.22;4186343;34;35132;-93
2021/05/18 11:26:03;;;;;;;1.05;0.52;;;;;;;19.47;52.66;99132.06;4120195;34;33639;-95
2021/05/18 11:48:27;;;;;;;;;;;;;;;;;;;;;
2021/05/18 11:56:23;;;;;;;1.83;1.10;;;;;;;18.85;51.86;99132.28;4079176;35;35986;-96
2021/05/18 12:00:30;;;;;;;2.42;0.90;;;;;;;19.38;51.37;99120.75;4036715;29;20111;-96
2021/05/18 12:04:47;;;;;;;;;;;;;;;;;;;;;
2021/05/18 12:08:31;;;;;;;2.05;0.55;;;;;;;20.95;46.83;99114.84;4086606;29;32657;-96
2021/05/18 12:11:53;;;;;;;1.52;0.77;;;;;;;21.02;47.53;99120.06;3996873;35;33400;-96
2021/05/18 12:15:46;;;;;;;1.00;0.57;;;;;;;21.14;46.45;99115.16;4038244;30;33491;-96
2021/05/18 12:19:23;;;;;;;2.30;0.70;;;;;;;23.22;44.86;99101.47;4011958;35;34896;-96
2021/05/18 12:22:53;;;;;;;1.15;0.70;;;;;;;25.16;40.26;99103.19;4046291;35;33331;-96
2021/05/18 12:27:07;;;;;;;1.60;0.68;;;;;;;26.29;35.77;99088.56;4069042;30;34284;-93
2021/05/18 12:30:39;;;;;;;1.30;0.80;;;;;;;26.59;37.11;99085.16;4045481;35;33785;-95
2021/05/18 12:33:46;;;;;;;2.22;1.08;;;;;;;27.17;35.14;99081.97;4095672;30;33671;-96
2021/05/18 12:56:08;;;;;;;3.62;0.55;;;;;;;24.76;39.02;99099.09;2862547;29;20057;-88
2021/05/18 13:13:59;;;;;;;3.45;0.62;;;;;;;23.77;36.53;99101.25;4138236;34;35428;-94
2021/05/18 13:16:43;;;;;;;6.28;0.88;;;;;;;22.52;37.60;99100.44;4117613;34;34709;-96
2021/05/18 13:20:09;;;;;;;8.88;0.88;;;;;;;22.32;39.22;99117.87;4111484;34;33662;-96
2021/05/18 13:23:21;;;;;;;0.70;0.50;;;;;;;21.79;39.25;99103.66;4113205;34;34528;-94
2021/05/18 13:26:35;;;;;;;5.32;0.80;;;;;;;23.05;37.12;99110.91;4093252;34;32561;-95
2021/05/18 13:29:35;;;;;;;1.55;0.60;;;;;;;21.47;39.03;99113.00;4490858;29;20052;-91
2021/05/18 13:32:43;;;;;;;2.70;0.47;;;;;;;21.43;37.94;99122.88;4525336;28;33524;31
2021/05/18 13:35:30;;;;;;;;;;;;;;;;;;;;;
2021/05/18 13:38:24;;;;;;;0.60;0.40;;;;;;;20.91;40.24;99120.06;4187221;34;32914;-90
2021/05/18 13:41:35;;;;;;;1.45;0.60;;;;;;;21.25;39.36;99111.31;4161982;34;32651;-90
2021/05/18 13:45:10;;;;;;;1.67;0.70;;;;;;;21.69;37.39;99107.22;4177810;28;32768;31
2021/05/18 13:47:52;;;;;;;1.35;0.52;;;;;;;21.92;38.02;99096.75;4167176;34;34251;-95
2021/05/18 13:51:01;;;;;;;3.28;0.70;;;;;;;21.55;37.02;99100.66;4378188;28;34932;-96
2021/05/18 13:57:27;;;;;;;1.60;0.30;;;;;;;21.52;38.78;99102.00;4644319;28;20087;31
2021/05/18 14:00:21;;;;;;;4.30;0.43;;;;;;;21.43;38.17;99112.69;4183311;34;33104;-89
2021/05/18 14:03:38;;;;;;;0.52;0.30;;;;;;;20.51;37.66;99116.06;4175477;34;34162;-92
2021/05/18 14:06:21;;;;;;;;;;;;;;;21.08;37.00;99113.50;4180777;34;33605;-96
2021/05/18 14:09:21;;;;;;;1.02;0.62;;;;;;;21.36;36.70;99114.06;4189348;34;33443;-94
2021/05/18 14:12:30;;;;;;;2.15;0.30;;;;;;;21.69;36.09;99107.22;4161082;34;32911;-94
2021/05/18 14:15:13;;;;;;;0.57;0.20;;;;;;;22.05;35.70;99101.66;4170433;34;33702;-96
2021/05/18 14:17:51;;;;;;;1.27;0.40;;;;;;;21.97;34.45;99094.81;4166903;34;33976;-93
2021/05/18 14:20:30;;;;;;;1.20;0.40;;;;;;;21.94;35.48;99095.34;4167254;34;33332;-95
2021/05/18 14:23:09;;;;;;;0.82;0.20;;;;;;;22.81;36.06;99107.19;4161667;34;35064;-92
2021/05/18 14:25:45;;;;;;;2.08;0.55;;;;;;;21.50;34.78;99106.97;4170959;34;34451;-93
2021/05/18 14:28:40;;;;;;;;;;;;;;;;;;;;;
2021/05/18 14:31:50;;;;;;;1.65;0.50;;;;;;;22.77;35.49;99104.19;4369275;29;20206;-92
2021/05/18 14:34:27;;;;;;;1.33;0.77;;;;;;;21.39;35.96;99103.34;4184882;34;34144;-92
2021/05/18 14:37:23;;;;;;;6.15;1.52;;;;;;;21.84;37.36;99098.97;4192546;34;35041;-95
2021/05/18 14:42:54;;;;;;;1.23;0.68;;;;;;;22.28;36.15;99105.72;4183451;34;32839;-94
2021/05/18 14:45:34;;;;;;;1.55;0.60;;;;;;;22.29;35.90;99101.87;4188665;34;34217;-95
2021/05/18 14:55:48;;;;;;;1.77;0.30;;;;;;;21.74;37.61;99100.91;4146018;34;34462;-96
2021/05/18 14:58:25;;;;;;;3.40;0.47;;;;;;;22.72;35.07;99094.03;4142836;34;33497;-96
2021/05/18 15:01:12;;;;;;;0.70;0.47;;;;;;;21.25;37.87;99108.56;4151276;34;34449;-96
2021/05/18 15:03:48;;;;;;;3.92;0.47;;;;;;;20.14;40.23;99119.69;4142378;34;34669;-94
2021/05/18 15:06:31;;;;;;;4.05;0.65;;;;;;;20.43;40.23;99116.53;4142372;34;32930;-90
2021/05/18 15:09:11;;;;;;;1.50;0.70;;;;;;;19.79;40.94;99117.53;4141941;34;33732;-95
2021/05/18 15:12:23;;;;;;;2.90;0.57;;;;;;;20.93;43.18;99122.53;4146775;34;20103;-96
2021/05/18 15:26:17;;;;;;;3.00;0.73;;;;;;;20.51;45.56;99140.75;4421098;29;20089;31
2021/05/18 15:29:58;;;;;;;2.37;0.75;;;;;;;20.54;45.45;99140.22;4113801;29;20190;-96
2021/05/18 15:33:53;;;;;;;;;;;;;;;;;;;;;
2021/05/18 15:41:10;;;;;;;0.93;0.62;;;;;;;21.19;43.92;99150.88;4358878;29;20090;-96
2021/05/18 15:44:21;;;;;;;0.65;0.43;;;;;;;21.19;42.33;99153.63;4074444;34;34701;-95
2021/05/18 15:47:27;;;;;;;1.60;0.50;;;;;;;21.69;41.70;99143.81;4061188;35;34791;-96
2021/05/18 15:50:42;;;;;;;2.87;0.80;;;;;;;22.84;38.73;99139.69;4073503;35;35106;-96
2021/05/18 15:54:07;;;;;;;;;;;;;;;;;;;;;
2021/05/18 15:57:29;;;;;;;1.60;0.52;;;;;;;24.70;36.11;99131.50;4073877;35;33747;-96
2021/05/18 16:00:34;;;;;;;1.75;0.50;;;;;;;24.08;35.99;99132.16;4268247;29;31787;-96
2021/05/18 16:03:34;;;;;;;1.30;0.68;;;;;;;25.31;33.90;99140.06;4096386;35;33982;-94
2021/05/18 16:06:24;;;;;;;0.43;0.40;;;;;;;25.23;34.72;99141.53;4109096;34;33336;-96
2021/05/18 16:09:22;;;;;;;1.10;0.60;;;;;;;25.73;34.31;99149.34;4097269;34;34721;-96
2021/05/18 16:12:35;;;;;;;;;;;;;;;;;;;;;
2021/05/18 16:16:00;;;;;;;1.17;0.40;;;;;;;25.42;35.61;99160.09;4102194;34;33790;-96
2021/05/18 16:19:09;;;;;;;1.58;0.70;;;;;;;24.53;35.94;99145.75;4077175;35;33765;-96
2021/05/18 16:22:34;;;;;;;4.20;0.90;;;;;;;24.81;36.65;99152.34;4080540;35;20133;-96
2021/05/18 16:25:46;;;;;;;3.15;0.80;;;;;;;24.78;36.43;99141.06;4213337;29;33813;-96
2021/05/18 16:29:21;;;;;;;3.40;0.88;;;;;;;23.98;37.32;99146.06;4079680;35;33880;-96
2021/05/18 16:32:24;;;;;;;2.62;0.68;;;;;;;23.63;38.49;99150.75;4104300;34;33829;-96
2021/05/18 16:35:26;;;;;;;2.87;0.50;;;;;;;23.57;39.41;99149.16;4104546;34;32893;-96
2021/05/18 16:38:45;;;;;;;3.12;1.05;;;;;;;23.72;39.10;99143.50;4099722;34;34372;-96
2021/05/18 16:41:54;;;;;;;5.07;0.95;;;;;;;23.54;40.18;99149.75;4107712;34;34133;-96
2021/05/18 16:45:07;;;;;;;2.35;0.75;;;;;;;23.13;40.17;99150.84;4117644;34;32494;-96
2021/05/18 16:47:44;;;;;;;1.50;0.85;;;;;;;22.14;42.62;99144.03;4133190;34;32286;-96
2021/05/18 16:50:31;;;;;;;1.30;0.82;;;;;;;22.04;42.31;99153.13;4135181;34;32600;-96
2021/05/18 16:53:16;;;;;;;3.70;0.85;;;;;;;22.33;43.32;99147.03;4144080;34;33078;-96
2021/05/18 16:56:06;;;;;;;9.05;1.10;;;;;;;23.19;41.49;99157.13;4165372;34;32168;-96
2021/05/18 16:58:44;;;;;;;1.83;0.90;;;;;;;23.89;40.24;99148.66;4143996;34;34537;-96
2021/05/18 17:01:34;;;;;;;3.50;0.80;;;;;;;23.66;39.34;99152.94;4150099;34;33419;-94
2021/05/18 17:04:07;;;;;;;2.37;1.00;;;;;;;20.05;46.35;99160.50;4169344;34;34429;-95
2021/05/18 17:06:57;;;;;;;2.65;1.17;;;;;;;20.98;44.65;99167.28;4161552;34;34529;-94
2021/05/18 17:09:38;;;;;;;1.45;0.70;;;;;;;20.46;44.67;99165.41;4153294;34;32960;-93
2021/05/18 17:12:46;;;;;;;2.75;0.93;;;;;;;20.83;45.63;99169.19;4137753;34;34175;-94
2021/05/18 17:15:25;;;;;;;3.05;0.90;;;;;;;20.91;46.58;99182.38;4135254;34;34777;-95
2021/05/18 17:18:02;;;;;;;1.83;0.77;;;;;;;21.26;43.96;99173.41;4159300;34;32489;-92
2021/05/18 17:21:02;;;;;;;1.50;1.17;;;;;;;21.23;46.04;99173.97;4143183;34;33841;-95
2021/05/18 17:23:52;;;;;;;1.15;1.00;;;;;;;21.03;45.86;99171.16;4160957;34;33123;-96
2021/05/18 17:30:26;;;;;;;4.90;0.95;;;;;;;19.89;48.23;99178.75;4174764;29;20166;-96
2021/05/18 17:33:00;;;;;;;1.35;0.57;;;;;;;20.39;46.67;99184.03;4183783;34;34747;-95
2021/05/18 17:35:53;;;;;;;3.05;0.73;;;;;;;20.14;47.17;99182.78;4169960;34;34106;-96
2021/05/18 17:38:27;;;;;;;1.70;1.08;;;;;;;19.12;48.46;99190.91;4169417;34;33954;-95
2021/05/18 17:41:13;;;;;;;1.15;1.02;;;;;;;18.71;48.96;99185.72;4159488;34;32994;-96
2021/05/18 17:43:48;;;;;;;2.47;0.70;;;;;;;17.97;51.23;99187.72;4142693;34;34189;-95
2021/05/18 17:46:36;;;;;;;2.37;0.62;;;;;;;17.74;51.55;99188.69;4151168;34;35347;-94
2021/05/18 17:49:12;;;;;;;0.70;0.60;;;;;;;18.04;50.89;99182.09;4164303;34;34829;-95
2021/05/18 17:52:01;;;;;;;1.10;0.82;;;;;;;17.01;53.76;99190.38;4147338;34;32756;-96
2021/05/18 17:54:44;;;;;;;4.75;0.80;;;;;;;16.96;54.34;99196.56;4151868;34;35512;-95
2021/05/18 17:57:30;;;;;;;0.88;0.60;;;;;;;17.37;53.58;99199.25;4137916;34;34209;-96
2021/05/18 18:00:05;;;;;;;3.60;0.80;;;;;;;16.88;54.78;99197.75;4140500;34;34402;-96
2021/05/18 18:02:52;;;;;;;0.77;0.68;;;;;;;17.03;55.84;99205.44;4145514;34;33901;-94
2021/05/18 18:05:26;;;;;;;2.87;0.62;;;;;;;18.08;52.88;99205.09;4143475;34;33980;-96
2021/05/18 18:08:14;;;;;;;3.80;0.80;;;;;;;17.73;54.50;99203.44;4156832;34;32525;-96
2021/05/18 18:10:51;;;;;;;2.70;1.08;;;;;;;17.53;53.59;99203.06;4180948;34;33181;-96
2021/05/18 18:13:37;;;;;;;1.00;0.68;;;;;;;17.23;53.99;99204.16;4149394;34;34499;-94
2021/05/18 18:16:10;;;;;;;2.05;0.80;;;;;;;15.91;57.53;99207.31;4160011;34;34238;-95
2021/05/18 18:18:51;;;;;;;2.33;0.82;;;;;;;16.73;55.67;99211.06;4162527;34;32863;-96
2021/05/18 18:21:24;;;;;;;1.77;0.82;;;;;;;17.43;54.67;99214.66;4177190;34;32860;-95
2021/05/18 18:24:11;;;;;;;1.05;0.80;;;;;;;16.88;55.52;99218.78;4147582;34;33531;-94
2021/05/18 18:26:45;;;;;;;1.65;0.80;;;;;;;16.85;56.73;99220.03;4157161;34;33709;-95
2021/05/18 18:29:37;;;;;;;1.75;0.77;;;;;;;16.54;57.04;99213.09;4144278;34;32125;-95
2021/05/18 18:32:19;;;;;;;4.22;0.70;;;;;;;16.06;58.22;99213.16;4158178;34;33381;-95
2021/05/18 18:34:58;;;;;;;2.10;1.02;;;;;;;15.89;59.02;99209.44;4162726;34;33323;-93
2021/05/18 18:37:47;;;;;;;2.23;1.20;;;;;;;15.34;60.90;99211.31;4176281;34;33602;-94
2021/05/18 18:40:37;;;;;;;3.67;0.98;;;;;;;15.44;60.84;99223.53;4168086;34;33117;-93
2021/05/18 18:43:18;;;;;;;3.47;1.10;;;;;;;15.64;60.91;99218.63;4171315;34;33813;-94
2021/05/18 18:46:01;;;;;;;3.70;1.00;;;;;;;15.96;60.12;99218.34;4150746;34;33524;-95
2021/05/18 18:48:38;;;;;;;1.75;1.25;;;;;;;15.77;61.31;99230.38;4151766;34;33543;-94
2021/05/18 18:54:16;;;;;;;5.40;1.05;;;;;;;14.75;63.88;99234.69;4159614;34;34263;-94
2021/05/18 18:57:02;;;;;;;3.37;1.33;;;;;;;14.95;63.44;99240.72;4166907;34;34816;-94
2021/05/18 18:59:35;;;;;;;2.00;1.15;;;;;;;15.56;62.03;99229.84;4168943;34;34482;-94
2021/05/18 19:02:26;;;;;;;2.97;1.00;;;;;;;15.34;63.24;99238.56;4167116;34;32594;-94
2021/05/18 19:05:09;;;;;;;0.98;0.93;;;;;;;14.70;64.39;99229.94;4161628;34;34091;-95
2021/05/18 19:13:40;;;;;;;1.37;0.95;;;;;;;14.05;64.89;99254.81;4180520;34;32138;-94
2021/05/18 19:16:13;;;;;;;2.08;0.80;;;;;;;13.68;65.23;99260.09;4144987;34;34348;-94
2021/05/18 19:19:01;;;;;;;1.37;0.85;;;;;;;13.59;65.34;99260.38;4165752;34;32928;-94
2021/05/18 19:21:35;;;;;;;1.23;0.88;;;;;;;13.44;64.70;99259.81;4179236;34;33761;-95
2021/05/18 19:24:32;;;;;;;2.35;0.90;;;;;;;13.68;63.89;99255.50;4172233;34;33500;-94
2021/05/18 19:27:05;;;;;;;3.42;1.02;;;;;;;13.97;62.22;99250.47;4167187;34;34113;-95
2021/05/18 19:30:11;;;;;;;6.12;0.85;;;;;;;14.02;61.57;99250.62;4081124;34;37057;-93
2021/05/18 19:32:46;;;;;;;4.28;0.65;;;;;;;13.80;62.04;99266.47;4165223;34;34321;-94
2021/05/18 19:44:47;;;;;;;1.80;0.70;;;;;;;13.74;61.42;99261.94;4168593;34;32778;-94
2021/05/18 19:50:20;;;;;;;3.05;0.95;;;;;;;13.07;63.80;99256.88;4181530;34;33282;-93
2021/05/18 19:53:24;;;;;;;2.83;1.05;;;;;;;12.73;65.06;99264.28;4174148;34;33131;-95
2021/05/18 20:12:01;;;;;;;3.78;0.70;;;;;;;12.49;66.21;99265.81;4180299;34;32061;-93
2021/05/18 20:20:33;;;;;;;1.42;0.70;;;;;;;12.24;66.87;99279.19;4188182;34;33585;-96
2021/05/18 20:23:28;;;;;;;1.65;0.68;;;;;;;12.44;66.47;99296.25;4169270;34;32250;-95
2021/05/18 20:26:27;;;;;;;0.93;0.60;;;;;;;12.59;66.10;99290.59;4171964;34;34186;-96